Kronborg, Nebraska
Current Conditions -  °F | °C
As of 5:55 PM on Sunday 21 Dec 2014 (Local Time) from KAUH Reporting Station
Overcast Overcast  
Wind Chill: 32°   Ceiling: 1700
Heat Index: 40°   Visibility: 7mi
Dew Point: 40°   Wind: 13mph
Humidity: 100%   Direction: 170°S
Pressure: 29.62"   Gusts: 17mph
Location:  41.0075°N, 98.0042°W
Report Text: KAUH 212355Z AUTO 17011G15KT 7SM SCT010 OVC017 04/04 A2962 RMK AO2 T00420042 10048 20025
Loading
Personal Weather Stations






























Interactive Weather Map New forecast layout! Learn more

10-Day Weather Forecast

Advertisements
Track Severe Weather on mobile